Time;durP1;ratioP1;P1;durP2;ratioP2;P2;SDS_P1;SDS_P2;PMS_P1;PMS_P2;Temp;Humidity;BMP_temperature;BMP_pressure;BME280_temperature;BME280_humidity;BME280_pressure;Samples;Min_cycle;Max_cycle;Signal;HPM_P1;HPM_P2
2023/08/02 00:00:06;;;;;;;78.68;74.57;;;;;;;22.08;51.51;99999.13;4979924;28;20106;-72
2023/08/02 00:02:32;;;;;;;76.18;72.15;;;;;;;22.06;51.44;99993.13;4986073;28;20377;-71
2023/08/02 00:04:57;;;;;;;76.35;72.47;;;;;;;22.03;51.54;99998.16;4978232;28;20027;-73
2023/08/02 00:07:23;;;;;;;73.38;69.97;;;;;;;22.02;51.76;99995.75;4979754;28;20435;-74
2023/08/02 00:09:48;;;;;;;77.95;74.25;;;;;;;21.99;51.77;99994.47;4980337;28;20430;-73
2023/08/02 00:12:14;;;;;;;75.70;71.90;;;;;;;21.98;51.69;99987.38;4978349;28;20427;-76
2023/08/02 00:14:39;;;;;;;74.10;70.55;;;;;;;21.97;51.20;99987.69;4987192;28;20034;-76
2023/08/02 00:17:04;;;;;;;76.30;72.35;;;;;;;21.95;51.51;99985.31;4983629;28;20266;-74
2023/08/02 00:19:30;;;;;;;75.80;72.20;;;;;;;21.94;51.41;99991.94;4984373;28;20039;-73
2023/08/02 00:21:55;;;;;;;75.60;71.85;;;;;;;21.93;51.70;99989.53;4982690;28;20054;-73
2023/08/02 00:24:20;;;;;;;75.28;71.78;;;;;;;21.91;51.69;100003.63;4983714;28;20382;-72
2023/08/02 00:26:46;;;;;;;77.30;73.63;;;;;;;21.89;51.79;99999.59;4986445;28;20118;-76
2023/08/02 00:29:11;;;;;;;75.35;71.65;;;;;;;21.88;51.90;99993.28;4962637;28;20038;-78
2023/08/02 00:31:37;;;;;;;74.72;71.10;;;;;;;21.86;51.79;99978.28;4987237;28;20078;-72
2023/08/02 00:34:02;;;;;;;74.53;70.97;;;;;;;21.84;51.65;99970.34;4979674;28;20065;-73
2023/08/02 00:36:27;;;;;;;75.53;71.53;;;;;;;21.83;51.98;99972.31;4990782;28;20117;-73
2023/08/02 00:38:53;;;;;;;78.38;74.28;;;;;;;21.82;51.51;99969.88;4983488;28;20124;-74
2023/08/02 00:41:18;;;;;;;74.25;70.72;;;;;;;21.80;51.39;99966.69;4976864;28;20034;-71
2023/08/02 00:43:46;;;;;;;76.85;73.28;;;;;;;21.78;51.38;99964.28;4983423;28;20485;-72
2023/08/02 00:46:15;;;;;;;75.93;71.95;;;;;;;21.75;51.99;99945.72;4982111;28;20030;-72
2023/08/02 00:48:42;;;;;;;73.00;69.10;;;;;;;21.75;51.47;99939.41;4990744;28;20404;-72
2023/08/02 00:51:12;;;;;;;75.28;71.25;;;;;;;21.74;51.62;99943.28;4993865;28;20066;-72
2023/08/02 00:53:38;;;;;;;73.28;69.38;;;;;;;21.72;51.86;99940.06;4986131;28;20042;-73
2023/08/02 00:56:04;;;;;;;75.88;72.07;;;;;;;21.72;51.47;99953.81;4984405;28;20547;-72
2023/08/02 00:58:30;;;;;;;75.30;71.53;;;;;;;21.70;51.76;99947.88;4977638;28;20034;-73
2023/08/02 01:01:06;;;;;;;77.47;73.47;;;;;;;21.68;51.52;99937.19;4982606;28;20049;-73
2023/08/02 01:03:31;;;;;;;73.95;70.47;;;;;;;21.66;51.58;99949.66;4986452;28;20433;-72
2023/08/02 01:06:01;;;;;;;74.88;71.38;;;;;;;21.65;51.58;99964.56;4985313;28;20460;-72
2023/08/02 01:08:33;;;;;;;71.82;68.43;;;;;;;21.64;51.54;99949.19;4985637;28;20033;-72
2023/08/02 01:11:29;;;;;;;72.60;69.10;;;;;;;21.62;51.95;99938.56;4978560;28;20030;-72
2023/08/02 01:13:56;;;;;;;73.60;69.88;;;;;;;21.59;52.07;99940.00;4982382;28;20043;-73
2023/08/02 01:16:24;;;;;;;76.53;72.63;;;;;;;21.57;51.57;99934.06;4985842;28;20049;-73
2023/08/02 01:18:50;;;;;;;72.90;69.30;;;;;;;21.56;51.54;99926.94;4988529;28;20023;-71
2023/08/02 01:21:16;;;;;;;71.43;67.82;;;;;;;21.55;52.03;99933.59;4988242;28;20022;-71
2023/08/02 01:23:42;;;;;;;72.75;69.13;;;;;;;21.54;52.13;99926.47;4988720;28;20386;-71
2023/08/02 01:26:08;;;;;;;74.70;70.95;;;;;;;21.53;51.81;99937.81;4984159;28;20114;-72
2023/08/02 01:28:40;;;;;;;73.13;69.47;;;;;;;21.51;52.18;99932.63;4978476;28;20481;-71
2023/08/02 01:31:07;;;;;;;72.72;69.32;;;;;;;21.50;52.15;99936.53;4986192;28;20110;-71
2023/08/02 01:33:37;;;;;;;73.55;69.55;;;;;;;21.48;52.21;99922.34;4989834;28;20147;-73
2023/08/02 01:36:03;;;;;;;73.95;70.43;;;;;;;21.46;51.96;99915.56;5000833;28;20034;-72
2023/08/02 01:38:29;;;;;;;72.35;68.85;;;;;;;21.45;52.23;99909.28;4983923;28;20344;-73
2023/08/02 01:40:54;;;;;;;72.07;68.38;;;;;;;21.44;52.05;99899.41;4982022;28;20046;-72
2023/08/02 01:43:20;;;;;;;71.78;68.40;;;;;;;21.42;52.21;99896.22;4981132;28;20456;-72
2023/08/02 01:45:45;;;;;;;74.45;70.63;;;;;;;21.42;51.82;99906.38;4983764;28;20638;-71
2023/08/02 01:48:10;;;;;;;75.85;72.22;;;;;;;21.39;52.13;99894.94;4986483;28;20022;-72
2023/08/02 01:50:36;;;;;;;73.60;69.90;;;;;;;21.39;51.84;99891.38;4986086;28;20057;-71
2023/08/02 01:53:01;;;;;;;73.05;69.50;;;;;;;21.37;52.22;99879.91;4985252;28;20046;-74
2023/08/02 01:55:26;;;;;;;68.57;64.82;;;;;;;21.36;51.87;99878.28;4983226;28;20038;-74
2023/08/02 01:57:52;;;;;;;65.13;61.90;;;;;;;21.35;52.36;99873.94;4983792;28;20034;-72
2023/08/02 02:00:17;;;;;;;65.47;61.97;;;;;;;21.33;52.34;99863.28;4986368;28;20427;-71
2023/08/02 02:02:43;;;;;;;68.35;65.05;;;;;;;21.33;52.17;99859.72;4983226;28;20041;-71
2023/08/02 02:05:08;;;;;;;70.93;67.20;;;;;;;21.30;51.95;99847.47;4988454;28;20102;-72
2023/08/02 02:07:33;;;;;;;67.75;64.35;;;;;;;21.30;52.12;99849.41;4986522;28;20057;-72
2023/08/02 02:09:59;;;;;;;69.68;66.22;;;;;;;21.29;52.20;99856.03;4982086;28;20031;-71
2023/08/02 02:12:26;;;;;;;64.60;61.38;;;;;;;21.26;51.98;99846.53;4983180;28;20051;-74
2023/08/02 02:14:52;;;;;;;71.90;68.40;;;;;;;21.26;52.41;99832.00;4989005;28;20085;-72
2023/08/02 02:17:17;;;;;;;67.65;63.95;;;;;;;21.24;52.17;99820.53;4987317;28;20482;-72
2023/08/02 02:19:43;;;;;;;68.40;64.75;;;;;;;21.22;52.06;99804.41;4981812;28;20117;-72
2023/08/02 02:22:08;;;;;;;66.47;63.13;;;;;;;21.22;52.39;99803.59;4983503;28;20042;-75
2023/08/02 02:24:34;;;;;;;67.43;64.05;;;;;;;21.21;52.43;99793.75;4986750;28;20114;-72
2023/08/02 02:27:00;;;;;;;69.72;66.20;;;;;;;21.19;51.98;99769.38;4987547;28;20027;-72
2023/08/02 02:29:25;;;;;;;67.38;64.28;;;;;;;21.18;52.47;99787.78;4983952;28;20045;-72
2023/08/02 02:31:50;;;;;;;70.88;66.50;;;;;;;21.16;52.04;99792.00;4982311;28;20113;-73
2023/08/02 02:34:16;;;;;;;67.97;64.57;;;;;;;21.15;52.06;99787.66;4987445;28;20027;-72
2023/08/02 02:36:43;;;;;;;69.32;65.63;;;;;;;21.14;52.11;99778.63;4985230;28;20034;-72
2023/08/02 02:39:09;;;;;;;69.63;65.78;;;;;;;21.12;52.27;99772.69;4982800;28;20390;-72
2023/08/02 02:41:34;;;;;;;70.55;67.03;;;;;;;21.11;52.46;99776.53;4987145;28;20419;-71
2023/08/02 02:44:00;;;;;;;68.05;64.60;;;;;;;21.10;52.08;99783.19;4982530;28;20472;-74
2023/08/02 02:46:25;;;;;;;70.20;66.75;;;;;;;21.10;52.07;99785.13;4982336;28;20035;-73
2023/08/02 02:48:50;;;;;;;67.88;64.53;;;;;;;21.08;52.16;99790.94;4984041;28;20110;-72
2023/08/02 02:51:16;;;;;;;69.20;65.50;;;;;;;21.07;52.41;99786.63;4988099;28;20039;-72
2023/08/02 02:53:41;;;;;;;68.07;64.88;;;;;;;21.06;52.21;99764.97;4981433;28;20122;-74
2023/08/02 02:56:06;;;;;;;67.93;64.63;;;;;;;21.05;52.65;99779.84;4983326;28;20382;-72
2023/08/02 02:58:32;;;;;;;69.40;65.55;;;;;;;21.03;52.36;99760.97;4982370;28;20104;-73
2023/08/02 03:00:57;;;;;;;69.40;65.80;;;;;;;21.02;52.36;99759.38;4985598;28;20040;-72
2023/08/02 03:03:24;;;;;;;68.55;64.95;;;;;;;21.01;52.37;99735.78;4984292;28;20030;-72
2023/08/02 03:05:49;;;;;;;68.03;64.57;;;;;;;21.00;52.65;99714.16;4994928;28;20093;-74
2023/08/02 03:08:14;;;;;;;69.97;65.93;;;;;;;20.99;52.29;99702.38;4981042;28;20042;-72
2023/08/02 03:10:40;;;;;;;69.00;65.60;;;;;;;20.98;52.66;99700.78;4996322;28;20117;-72
2023/08/02 03:13:05;;;;;;;67.03;63.75;;;;;;;20.97;52.31;99701.91;4983032;28;20447;-75
2023/08/02 03:15:30;;;;;;;67.55;64.35;;;;;;;20.96;52.27;99698.38;5001987;28;20129;-76
2023/08/02 03:17:56;;;;;;;69.63;65.57;;;;;;;20.95;52.74;99685.78;4984937;28;20466;-72
2023/08/02 03:20:21;;;;;;;65.95;62.88;;;;;;;20.94;52.52;99680.63;4985004;28;20539;-72
2023/08/02 03:22:47;;;;;;;66.97;63.72;;;;;;;20.93;52.70;99676.28;4985144;28;20031;-71
2023/08/02 03:25:12;;;;;;;68.07;64.47;;;;;;;20.92;52.86;99674.69;4986753;28;20045;-71
2023/08/02 03:27:39;;;;;;;68.40;65.07;;;;;;;20.91;52.55;99681.28;4985060;28;20134;-72
2023/08/02 03:30:05;;;;;;;67.93;64.55;;;;;;;20.91;52.79;99689.53;4989607;28;20096;-72
2023/08/02 03:32:30;;;;;;;67.05;63.55;;;;;;;20.90;52.49;99676.94;4983373;28;20386;-71
2023/08/02 03:34:56;;;;;;;70.72;67.13;;;;;;;20.89;52.67;99681.66;4985066;28;20026;-72
2023/08/02 03:37:21;;;;;;;70.63;67.10;;;;;;;20.88;52.47;99665.50;4979317;28;20092;-72
2023/08/02 03:39:47;;;;;;;67.80;64.50;;;;;;;20.87;52.81;99658.44;4982060;28;20113;-77
2023/08/02 03:42:12;;;;;;;68.72;65.22;;;;;;;20.86;52.69;99648.56;4980727;28;20066;-72
2023/08/02 03:44:37;;;;;;;69.18;65.78;;;;;;;20.85;52.88;99646.97;4985950;28;20406;-72
2023/08/02 03:47:03;;;;;;;66.57;62.67;;;;;;;20.83;53.04;99632.78;4983294;28;20031;-74
2023/08/02 03:49:28;;;;;;;69.13;65.72;;;;;;;20.83;52.92;99630.03;4981702;28;20030;-72
2023/08/02 03:51:54;;;;;;;67.93;64.53;;;;;;;20.82;52.53;99625.69;4986086;28;20081;-72
2023/08/02 03:54:19;;;;;;;68.78;65.28;;;;;;;20.81;52.55;99621.34;4983460;28;20108;-72
2023/08/02 03:56:45;;;;;;;67.07;63.42;;;;;;;20.81;52.54;99610.34;4980231;28;20526;-73
2023/08/02 03:59:10;;;;;;;68.82;65.53;;;;;;;20.79;52.88;99607.97;4980858;28;20044;-72
2023/08/02 04:01:35;;;;;;;69.43;65.57;;;;;;;20.77;52.49;99602.00;4987273;28;20347;-74
2023/08/02 04:04:01;;;;;;;66.55;63.05;;;;;;;20.77;52.57;99595.72;4980149;28;20026;-72
2023/08/02 04:06:26;;;;;;;66.10;62.90;;;;;;;20.77;52.57;99588.28;4983512;28;20455;-72
2023/08/02 04:08:52;;;;;;;67.20;63.78;;;;;;;20.75;52.69;99577.63;4982582;28;20386;-75
2023/08/02 04:11:17;;;;;;;68.32;64.43;;;;;;;20.75;53.16;99574.91;4976966;28;20046;-72
2023/08/02 04:13:42;;;;;;;67.50;63.92;;;;;;;20.73;53.04;99574.44;4984496;28;20427;-73
2023/08/02 04:16:08;;;;;;;65.78;62.75;;;;;;;20.74;52.70;99570.56;4986793;28;20403;-75
2023/08/02 04:18:33;;;;;;;67.13;63.83;;;;;;;20.73;53.22;99562.66;4985376;28;20383;-75
2023/08/02 04:20:59;;;;;;;67.63;64.22;;;;;;;20.72;53.03;99547.34;4980778;28;20035;-73
2023/08/02 04:23:26;;;;;;;67.35;64.05;;;;;;;20.72;53.20;99541.84;4983205;28;20038;-73
2023/08/02 04:25:51;;;;;;;67.45;64.20;;;;;;;20.70;52.75;99542.19;4978812;28;20041;-73
2023/08/02 04:28:17;;;;;;;71.13;67.28;;;;;;;20.70;53.00;99527.66;4978241;28;20058;-74
2023/08/02 04:30:42;;;;;;;66.63;63.55;;;;;;;20.69;52.91;99523.34;4983440;28;20026;-72
2023/08/02 04:33:07;;;;;;;66.50;63.10;;;;;;;20.68;53.19;99519.78;4986696;28;20034;-71
2023/08/02 04:35:33;;;;;;;68.40;64.70;;;;;;;20.67;53.29;99509.94;4984749;28;20045;-72
2023/08/02 04:37:58;;;;;;;65.90;62.65;;;;;;;20.66;53.29;99500.13;4988305;28;20114;-71
2023/08/02 04:40:24;;;;;;;67.53;63.72;;;;;;;20.67;52.88;99498.19;4977916;28;20039;-72
2023/08/02 04:42:50;;;;;;;66.57;63.17;;;;;;;20.65;53.24;99482.03;4985952;28;20034;-75
2023/08/02 04:45:16;;;;;;;67.95;64.25;;;;;;;20.64;53.45;99476.91;5006168;28;20414;-73
2023/08/02 04:47:41;;;;;;;66.00;62.80;;;;;;;20.64;53.15;99474.16;4986419;28;20039;-74
2023/08/02 04:50:07;;;;;;;66.75;63.65;;;;;;;20.64;53.50;99476.91;4989805;28;20037;-75
2023/08/02 04:52:33;;;;;;;68.82;65.53;;;;;;;20.63;52.80;99475.28;4983007;28;20077;-73
2023/08/02 04:54:59;;;;;;;66.03;62.78;;;;;;;20.63;53.43;99464.31;4989913;28;20558;-73
2023/08/02 04:57:24;;;;;;;67.72;64.22;;;;;;;20.62;53.31;99460.78;4987491;28;20482;-74
2023/08/02 04:59:53;;;;;;;66.07;62.78;;;;;;;20.60;52.91;99454.84;4987367;28;20458;-73
2023/08/02 05:02:20;;;;;;;68.20;64.80;;;;;;;20.59;53.39;99447.75;4985369;28;20030;-70
2023/08/02 05:04:51;;;;;;;67.13;63.83;;;;;;;20.59;53.00;99444.19;4981536;28;20066;-74
2023/08/02 05:07:17;;;;;;;67.05;63.72;;;;;;;20.60;53.55;99452.09;4992258;28;20133;-73
2023/08/02 05:09:43;;;;;;;67.28;63.75;;;;;;;20.58;53.58;99443.38;5000745;28;20358;-72
2023/08/02 05:12:08;;;;;;;67.63;64.13;;;;;;;20.58;53.17;99423.41;4998550;28;20030;-73
2023/08/02 05:14:34;;;;;;;68.38;64.85;;;;;;;20.57;53.44;99413.56;4989746;28;20076;-71
2023/08/02 05:16:59;;;;;;;66.18;63.08;;;;;;;20.56;53.56;99410.00;4986433;28;20360;-69
2023/08/02 05:19:24;;;;;;;65.95;62.65;;;;;;;20.56;53.54;99409.22;5006211;28;20073;-70
2023/08/02 05:21:50;;;;;;;68.47;64.97;;;;;;;20.55;53.36;99400.19;4982906;28;20049;-70
2023/08/02 05:24:15;;;;;;;68.13;64.90;;;;;;;20.55;53.54;99394.69;4980294;28;20042;-72
2023/08/02 05:26:40;;;;;;;68.63;64.05;;;;;;;20.53;53.52;99397.75;4988010;28;20034;-70
2023/08/02 05:29:06;;;;;;;67.00;63.65;;;;;;;20.53;53.62;99385.97;4985488;28;20056;-69
2023/08/02 05:31:31;;;;;;;67.55;64.22;;;;;;;20.51;53.55;99377.28;4987275;28;20038;-71
2023/08/02 05:33:57;;;;;;;64.50;61.13;;;;;;;20.50;53.67;99370.22;4980221;28;20034;-70
2023/08/02 05:36:22;;;;;;;65.80;62.63;;;;;;;20.50;53.34;99364.72;4986437;28;20372;-71
2023/08/02 05:38:47;;;;;;;64.70;61.47;;;;;;;20.50;53.34;99359.25;4987621;28;20129;-70
2023/08/02 05:41:13;;;;;;;67.18;63.90;;;;;;;20.48;53.70;99351.34;4983906;28;20085;-70
2023/08/02 05:43:44;;;;;;;67.30;63.95;;;;;;;20.48;53.29;99345.84;4970951;28;20472;-71
2023/08/02 05:46:10;;;;;;;65.28;62.13;;;;;;;20.47;53.53;99343.47;4984187;28;20038;-70
2023/08/02 05:48:35;;;;;;;67.97;64.88;;;;;;;20.47;53.58;99338.78;4978126;28;20716;-71
2023/08/02 05:51:01;;;;;;;67.35;64.15;;;;;;;20.46;53.41;99320.75;4990961;28;20478;-71
2023/08/02 05:53:26;;;;;;;66.45;63.03;;;;;;;20.45;53.88;99304.63;4985878;28;20031;-71
2023/08/02 05:55:51;;;;;;;64.95;61.95;;;;;;;20.45;53.51;99305.41;4985415;28;20085;-71
2023/08/02 05:58:17;;;;;;;67.03;63.72;;;;;;;20.44;54.00;99286.56;4984231;28;20332;-69
2023/08/02 06:00:42;;;;;;;64.13;61.05;;;;;;;20.43;54.07;99285.75;4987916;28;20038;-70
2023/08/02 06:03:08;;;;;;;64.78;61.70;;;;;;;20.43;53.58;99277.53;4989806;28;20038;-70
2023/08/02 06:05:33;;;;;;;62.67;59.67;;;;;;;20.43;54.00;99273.97;4987508;28;20026;-69
2023/08/02 06:07:58;;;;;;;65.85;62.45;;;;;;;20.41;53.81;99263.38;4985584;28;20441;-76
2023/08/02 06:10:24;;;;;;;65.07;61.97;;;;;;;20.41;53.75;99257.88;5004509;28;20046;-71
2023/08/02 06:12:49;;;;;;;67.47;64.07;;;;;;;20.41;54.19;99254.31;5008975;28;20047;-71
2023/08/02 06:15:15;;;;;;;65.78;62.70;;;;;;;20.40;54.07;99252.75;4978211;28;20057;-71
2023/08/02 06:17:40;;;;;;;63.92;60.83;;;;;;;20.39;54.27;99246.47;4989884;28;20486;-73
2023/08/02 06:20:07;;;;;;;64.72;61.70;;;;;;;20.38;54.14;99239.34;4981414;28;20042;-70
2023/08/02 06:22:32;;;;;;;66.13;63.03;;;;;;;20.38;54.29;99235.81;4988978;28;20041;-70
2023/08/02 06:24:57;;;;;;;64.53;61.53;;;;;;;20.37;53.98;99217.78;4993641;28;20026;-72
2023/08/02 06:27:24;;;;;;;67.15;63.97;;;;;;;20.36;54.37;99210.69;4987867;28;20035;-75
2023/08/02 06:29:50;;;;;;;64.65;61.47;;;;;;;20.35;54.05;99204.41;4995864;28;20035;-71
2023/08/02 06:32:15;;;;;;;65.10;62.05;;;;;;;20.35;54.42;99203.63;4984516;28;20041;-70
2023/08/02 06:34:41;;;;;;;66.53;63.33;;;;;;;20.35;54.03;99198.13;4986197;28;20100;-72
2023/08/02 06:37:06;;;;;;;65.20;62.10;;;;;;;20.35;53.93;99192.66;4985787;28;20034;-72
2023/08/02 06:39:32;;;;;;;66.30;63.20;;;;;;;20.34;54.06;99180.88;4987709;28;20470;-74
2023/08/02 06:41:58;;;;;;;66.50;63.40;;;;;;;20.33;54.07;99173.78;4981781;28;20042;-78
2023/08/02 06:44:23;;;;;;;64.82;61.78;;;;;;;20.32;54.07;99167.50;4987571;28;20037;-72
2023/08/02 06:46:48;;;;;;;67.43;64.22;;;;;;;20.32;54.21;99159.28;4984477;28;20046;-73
2023/08/02 06:49:14;;;;;;;64.28;61.28;;;;;;;20.32;54.51;99153.00;4986813;28;20030;-72
2023/08/02 06:51:39;;;;;;;64.82;61.75;;;;;;;20.31;54.01;99152.22;4985479;28;20053;-78
2023/08/02 06:54:05;;;;;;;69.05;65.60;;;;;;;20.31;54.55;99148.69;4983331;28;20038;-73
2023/08/02 06:56:30;;;;;;;67.93;64.45;;;;;;;20.30;54.21;99141.56;4989091;28;20109;-71
2023/08/02 06:58:55;;;;;;;63.88;60.75;;;;;;;20.30;54.67;99136.09;4988540;28;20034;-75
2023/08/02 07:01:22;;;;;;;65.32;62.13;;;;;;;20.30;54.69;99136.09;4987231;28;20038;-73
2023/08/02 07:03:48;;;;;;;64.45;61.50;;;;;;;20.28;54.26;99125.47;4987868;28;20053;-73
2023/08/02 07:06:16;;;;;;;64.45;61.45;;;;;;;20.28;54.28;99114.50;4992881;28;20060;-71
2023/08/02 07:08:42;;;;;;;64.57;61.50;;;;;;;20.28;54.83;99119.19;5001289;28;20403;-74
2023/08/02 07:11:08;;;;;;;64.68;61.67;;;;;;;20.28;54.44;99113.69;4984362;28;20394;-75
2023/08/02 07:13:38;;;;;;;63.88;60.78;;;;;;;20.27;54.82;99101.94;5002240;28;20067;-76
2023/08/02 07:16:05;;;;;;;65.40;62.20;;;;;;;20.27;54.37;99106.63;4988054;28;20026;-72
2023/08/02 07:18:31;;;;;;;64.63;61.60;;;;;;;20.26;54.54;99100.34;4987928;28;20053;-72
2023/08/02 07:20:56;;;;;;;63.92;61.03;;;;;;;20.26;54.43;99096.78;4984645;28;20039;-71
2023/08/02 07:23:22;;;;;;;64.22;61.10;;;;;;;20.25;54.41;99096.00;4986680;28;20042;-79
2023/08/02 07:25:48;;;;;;;63.45;60.53;;;;;;;20.26;54.58;99094.06;4987690;28;20041;-74
2023/08/02 07:28:13;;;;;;;62.85;59.90;;;;;;;20.26;54.48;99083.09;4984431;28;20026;-74
2023/08/02 07:30:38;;;;;;;66.57;63.28;;;;;;;20.24;54.93;99077.97;4987115;28;20405;-74
2023/08/02 07:33:04;;;;;;;63.10;60.20;;;;;;;20.25;55.03;99070.53;4985315;28;20042;-73
2023/08/02 07:35:29;;;;;;;65.07;61.83;;;;;;;20.25;54.99;99067.78;4981721;28;20754;-75
2023/08/02 07:37:55;;;;;;;63.72;60.72;;;;;;;20.24;54.79;99071.69;4988001;28;20100;-78
2023/08/02 07:40:20;;;;;;;63.50;60.50;;;;;;;20.23;54.77;99059.91;4984364;28;20510;-74
2023/08/02 07:42:46;;;;;;;64.35;61.35;;;;;;;20.22;55.01;99052.84;4984350;28;20093;-75
2023/08/02 07:45:12;;;;;;;61.78;58.95;;;;;;;20.23;54.97;99046.19;4984761;28;20126;-76
2023/08/02 07:47:38;;;;;;;64.22;61.03;;;;;;;20.23;54.78;99035.22;4982976;28;20038;-77
2023/08/02 07:50:05;;;;;;;64.45;61.47;;;;;;;20.22;55.17;99036.38;4987326;28;20151;-75
2023/08/02 07:52:30;;;;;;;69.32;65.20;;;;;;;20.24;54.91;99036.06;4985862;28;20365;-79
2023/08/02 07:54:56;;;;;;;62.63;59.75;;;;;;;20.24;54.85;99036.06;4988261;28;20039;-75
2023/08/02 07:57:27;;;;;;;64.45;61.45;;;;;;;20.23;55.03;99031.69;4982427;28;20030;-83
2023/08/02 07:59:53;;;;;;;62.72;59.83;;;;;;;20.23;55.30;99023.47;4984918;28;20081;-72
2023/08/02 08:02:19;;;;;;;65.65;62.63;;;;;;;20.23;55.37;99042.66;4985574;28;20406;-78
2023/08/02 08:04:45;;;;;;;65.43;62.35;;;;;;;20.22;55.34;99030.91;4985763;28;20192;-71
2023/08/02 08:07:10;;;;;;;62.72;59.80;;;;;;;20.23;55.22;99024.25;4986944;28;20513;-88
2023/08/02 08:09:36;;;;;;;64.60;61.60;;;;;;;20.23;55.40;99021.53;4987380;28;20036;-78
2023/08/02 08:12:03;;;;;;;62.88;59.92;;;;;;;20.23;55.17;99024.25;4983697;28;20037;-80
2023/08/02 08:14:29;;;;;;;61.95;59.15;;;;;;;20.24;55.11;99014.13;4987259;28;20075;-76
2023/08/02 08:16:56;;;;;;;60.70;57.95;;;;;;;20.23;55.25;99018.78;4990511;28;20038;-73
2023/08/02 08:19:22;;;;;;;66.88;63.72;;;;;;;20.24;55.54;99019.59;4994298;28;20117;-75
2023/08/02 08:21:47;;;;;;;63.35;60.35;;;;;;;20.24;55.70;99016.84;4985326;28;20152;-74
2023/08/02 08:24:12;;;;;;;62.60;59.75;;;;;;;20.26;55.31;99017.28;4989617;28;20393;-74
2023/08/02 08:26:38;;;;;;;62.85;59.95;;;;;;;20.24;55.09;99017.66;4988323;28;20073;-72
2023/08/02 08:29:04;;;;;;;64.25;61.35;;;;;;;20.25;55.24;99019.22;4992924;28;20394;-79
2023/08/02 08:31:29;;;;;;;62.30;59.40;;;;;;;20.26;55.43;99009.88;4988607;28;20061;-73
2023/08/02 08:33:55;;;;;;;63.20;60.30;;;;;;;20.25;55.30;99013.75;4983684;28;20101;-72
2023/08/02 08:36:21;;;;;;;63.03;60.13;;;;;;;20.27;55.34;99013.41;4990328;28;20386;-76
2023/08/02 08:38:46;;;;;;;65.50;62.03;;;;;;;20.27;55.15;99008.72;4990494;28;20043;-72
2023/08/02 08:41:15;;;;;;;62.67;59.70;;;;;;;20.28;55.63;99009.50;4987581;28;20377;-82
2023/08/02 08:43:40;;;;;;;62.10;59.20;;;;;;;20.30;55.79;98996.25;4991421;28;20438;-74
2023/08/02 08:46:06;;;;;;;61.13;58.30;;;;;;;20.29;55.89;98983.72;4991289;28;20482;-72
2023/08/02 08:48:35;;;;;;;61.72;58.83;;;;;;;20.30;55.50;98986.06;4993635;28;20036;-73
2023/08/02 08:51:02;;;;;;;60.50;57.70;;;;;;;20.31;55.84;98979.47;4986890;28;20125;-75
2023/08/02 08:53:34;;;;;;;63.13;59.83;;;;;;;20.32;55.50;98972.03;4991238;28;20538;-78
2023/08/02 08:56:01;;;;;;;62.50;59.67;;;;;;;20.32;55.54;98972.81;4992572;28;20072;-73
2023/08/02 08:58:27;;;;;;;64.88;61.88;;;;;;;20.33;55.99;98968.13;4987489;28;20084;-78
2023/08/02 09:00:58;;;;;;;63.05;60.15;;;;;;;20.35;55.82;98973.28;4988732;28;20402;-73
2023/08/02 09:03:23;;;;;;;63.72;60.72;;;;;;;20.35;55.54;98965.84;4990284;28;20085;-74
2023/08/02 09:05:50;;;;;;;63.88;60.88;;;;;;;20.36;56.08;98961.16;4991335;28;20030;-74
2023/08/02 09:08:15;;;;;;;65.70;62.70;;;;;;;20.37;55.62;98958.06;4987753;28;20496;-73
2023/08/02 09:10:41;;;;;;;64.07;61.08;;;;;;;20.38;55.73;98951.41;4989306;28;20121;-72
2023/08/02 09:13:19;;;;;;;67.10;63.90;;;;;;;20.41;55.97;98947.19;4990116;28;20038;-73
2023/08/02 09:15:45;;;;;;;64.53;61.53;;;;;;;20.42;55.74;98946.03;5003974;28;20046;-75
2023/08/02 09:18:11;;;;;;;63.40;60.50;;;;;;;20.43;55.75;98955.84;4989541;28;20044;-80
2023/08/02 09:20:37;;;;;;;63.97;61.03;;;;;;;20.44;55.84;98950.03;5004181;28;20038;-72
2023/08/02 09:23:14;;;;;;;62.70;59.80;;;;;;;20.46;56.68;98935.94;4987992;28;20176;-74
2023/08/02 09:25:40;;;;;;;65.30;62.20;;;;;;;20.48;56.62;98931.69;4983596;28;20054;-72
2023/08/02 09:28:11;;;;;;;66.00;62.97;;;;;;;20.48;56.49;98934.44;4986517;28;20459;-71
2023/08/02 09:30:36;;;;;;;66.60;63.60;;;;;;;20.50;56.37;98937.63;4972356;28;20057;-73
2023/08/02 09:33:08;;;;;;;64.40;61.30;;;;;;;20.53;56.63;98933.38;4989406;28;20474;-74
2023/08/02 09:35:45;;;;;;;65.85;62.85;;;;;;;20.56;56.86;98929.97;4987306;28;20161;-74
2023/08/02 09:38:11;;;;;;;65.10;62.10;;;;;;;20.57;56.67;98934.31;4990882;28;20026;-74
2023/08/02 09:40:38;;;;;;;65.30;62.30;;;;;;;20.58;56.70;98941.38;4989826;28;20026;-72
2023/08/02 09:43:04;;;;;;;67.32;64.13;;;;;;;20.59;56.65;98932.03;4988763;28;20092;-72
2023/08/02 09:45:34;;;;;;;64.05;61.08;;;;;;;20.61;56.44;98932.44;4989955;28;20042;-72
2023/08/02 09:48:00;;;;;;;63.65;60.75;;;;;;;20.63;56.57;98930.16;4987458;28;20030;-74
2023/08/02 09:50:26;;;;;;;64.18;61.20;;;;;;;20.64;56.58;98923.53;4985412;28;20343;-73
2023/08/02 09:52:51;;;;;;;65.50;62.40;;;;;;;20.66;56.82;98923.97;4989346;28;20042;-73
2023/08/02 09:55:17;;;;;;;64.85;61.85;;;;;;;20.69;56.79;98919.72;4990421;28;21006;-72
2023/08/02 09:57:43;;;;;;;64.88;61.67;;;;;;;20.71;56.96;98920.13;4987792;28;20125;-73
2023/08/02 10:00:10;;;;;;;63.92;60.97;;;;;;;20.73;56.81;98912.34;4987357;28;20516;-73
2023/08/02 10:02:36;;;;;;;65.70;62.40;;;;;;;20.75;57.41;98899.09;4986364;28;20039;-71
2023/08/02 10:05:04;;;;;;;67.38;64.18;;;;;;;20.77;57.85;98904.22;4975617;28;20373;-76
2023/08/02 10:07:49;;;;;;;66.35;63.20;;;;;;;20.78;59.44;98905.81;4988625;28;20046;-75
2023/08/02 10:10:22;;;;;;;66.25;63.15;;;;;;;20.84;59.87;98890.66;4987906;28;20066;-74
2023/08/02 10:12:55;;;;;;;70.40;67.10;;;;;;;20.89;59.49;98882.97;4989390;28;20347;-78
2023/08/02 10:15:21;;;;;;;70.93;67.60;;;;;;;20.95;59.60;98883.47;4988999;28;20030;-75
2023/08/02 10:17:47;;;;;;;66.88;63.58;;;;;;;20.99;60.18;98873.38;4987210;28;20038;-73
2023/08/02 10:20:14;;;;;;;67.57;64.15;;;;;;;21.03;60.39;98874.25;4988766;28;20038;-75
2023/08/02 10:22:43;;;;;;;68.63;65.05;;;;;;;21.06;60.19;98861.75;4986576;28;20026;-81
2023/08/02 10:25:11;;;;;;;69.82;66.20;;;;;;;21.09;60.53;98858.28;4988821;28;20038;-74
2023/08/02 10:27:38;;;;;;;69.72;66.53;;;;;;;21.11;60.32;98848.53;4989739;28;20164;-74
2023/08/02 10:30:04;;;;;;;67.38;64.28;;;;;;;21.14;60.19;98839.59;4984935;28;20030;-83
2023/08/02 10:32:30;;;;;;;71.97;68.68;;;;;;;21.16;59.70;98840.00;4986561;28;20080;-82
2023/08/02 10:34:56;;;;;;;73.60;70.00;;;;;;;21.20;59.47;98875.00;4988259;28;20166;-78
2023/08/02 10:37:22;;;;;;;71.07;67.82;;;;;;;21.23;59.01;98863.28;4984648;28;20052;-72
2023/08/02 10:39:48;;;;;;;68.82;65.72;;;;;;;21.24;58.99;98862.13;4984897;28;20120;-74
2023/08/02 10:42:20;;;;;;;71.20;67.97;;;;;;;21.27;58.48;98875.13;4988034;28;20507;-74
2023/08/02 10:44:55;;;;;;;70.47;66.75;;;;;;;21.29;58.74;98878.31;4979505;28;20126;-77
2023/08/02 10:47:34;;;;;;;69.85;66.07;;;;;;;21.31;58.63;98895.25;4983055;28;20121;-75
2023/08/02 10:50:01;;;;;;;71.57;68.18;;;;;;;21.32;59.06;98867.44;4979914;28;20030;-74
2023/08/02 10:52:32;;;;;;;67.43;64.32;;;;;;;21.34;58.95;98873.38;4983587;28;20041;-74
2023/08/02 10:55:12;;;;;;;71.22;67.95;;;;;;;21.36;58.60;98860.03;4983932;28;20047;-74
2023/08/02 10:58:07;;;;;;;73.50;70.20;;;;;;;21.39;58.71;98847.56;4980718;28;20332;-74
2023/08/02 11:00:37;;;;;;;66.95;63.83;;;;;;;21.43;58.27;98855.91;4982637;28;20026;-77
2023/08/02 11:03:03;;;;;;;70.25;66.90;;;;;;;21.45;58.42;98854.38;4980441;28;20092;-74
2023/08/02 11:05:42;;;;;;;72.25;68.75;;;;;;;21.47;58.94;98857.56;4980897;28;20145;-76
2023/08/02 11:08:08;;;;;;;70.82;67.53;;;;;;;21.51;58.79;98860.38;4978089;28;20034;-75
2023/08/02 11:10:52;;;;;;;72.20;68.90;;;;;;;21.54;58.64;98856.91;4982340;28;20473;-75
2023/08/02 11:13:18;;;;;;;71.57;68.10;;;;;;;21.55;58.16;98848.31;4977712;28;20128;-74